Wetterdaten: Woche 20.06.22 - 26.06.22 (KW25)
Datum Zeit Temp. Aussen Temp. o. S. Temp +5cm Feuchte Auss Luftdruck Regen Sonnenschein Regendauer Solar Windben Empfang
20.06.2022 00:00 14,9 C 14,4 C 11,1 C 89 % 1013,5 hPa 0,0 l/m 0,00 h 0,00 h 0 W/m 10,0 km/h (2 Bft) 98,27 %
20.06.2022 01:00 14,7 C 14,1 C 10,9 C 87 % 1013,4 hPa 0,0 l/m 0,00 h 0,00 h 0 W/m 9,9 km/h (2 Bft) 98,27 %
20.06.2022 02:00 14,3 C 13,9 C 10,6 C 88 % 1013,0 hPa 0,0 l/m 0,00 h 0,00 h 0 W/m 5,6 km/h (1 Bft) 95,23 %
20.06.2022 03:00 14,4 C 13,1 C 9,9 C 90 % 1015,0 hPa 1,6 l/m 0,00 h 0,83 h 0 W/m 3,8 km/h (1 Bft) 99,50 %
20.06.2022 04:00 13,5 C 12,3 C 8,9 C 94 % 1012,6 hPa 0,4 l/m 0,00 h 0,47 h 0 W/m 8,6 km/h (2 Bft) 97,65 %
20.06.2022 05:00 12,8 C 12,2 C 8,3 C 94 % 1011,9 hPa 0,0 l/m 0,00 h 0,00 h 4 W/m 13,1 km/h (3 Bft) 96,16 %
20.06.2022 06:00 13,1 C 12,6 C 8,7 C 92 % 1014,0 hPa 0,0 l/m 0,00 h 0,37 h 7 W/m 4,1 km/h (1 Bft) 97,84 %
20.06.2022 07:00 13,5 C 12,8 C 9,2 C 93 % 1014,5 hPa 0,0 l/m 0,00 h 0,00 h 22 W/m 6,0 km/h (2 Bft) 97,65 %
20.06.2022 08:00 13,3 C 12,6 C 9,0 C 94 % 1014,4 hPa 0,6 l/m 0,00 h 0,67 h 42 W/m 4,9 km/h (1 Bft) 95,32 %
20.06.2022 09:00 13,9 C 14,6 C 10,3 C 93 % 1015,0 hPa 0,0 l/m 0,23 h 0,13 h 212 W/m 8,5 km/h (2 Bft) 96,51 %
20.06.2022 10:00 16,5 C 19,2 C 15,9 C 82 % 1015,5 hPa 0,0 l/m 0,70 h 0,00 h 580 W/m 13,4 km/h (3 Bft) 98,22 %
20.06.2022 11:00 17,4 C 19,0 C 15,2 C 72 % 1016,0 hPa 0,0 l/m 0,43 h 0,00 h 459 W/m 14,3 km/h (3 Bft) 96,94 %
20.06.2022 12:00 18,7 C 20,4 C 19,2 C 68 % 1016,4 hPa 0,0 l/m 0,43 h 0,00 h 553 W/m 8,9 km/h (2 Bft) 99,00 %
20.06.2022 13:00 19,8 C 21,3 C 21,2 C 63 % 1016,5 hPa 0,0 l/m 0,70 h 0,00 h 739 W/m 10,7 km/h (2 Bft) 97,57 %
20.06.2022 14:00 21,1 C 23,3 C 18,3 C 58 % 1016,4 hPa 0,0 l/m 0,90 h 0,00 h 867 W/m 15,5 km/h (3 Bft) 95,88 %
20.06.2022 15:00 21,7 C 23,7 C 18,2 C 55 % 1016,4 hPa 0,0 l/m 0,70 h 0,00 h 756 W/m 15,9 km/h (3 Bft) 98,76 %
20.06.2022 16:00 22,2 C 25,7 C 18,4 C 53 % 1016,4 hPa 0,0 l/m 0,63 h 0,00 h 600 W/m 17,7 km/h (3 Bft) 97,79 %
20.06.2022 17:00 22,7 C 27,0 C 19,3 C 51 % 1016,4 hPa 0,0 l/m 0,93 h 0,00 h 642 W/m 19,0 km/h (3 Bft) 96,44 %
20.06.2022 18:00 22,4 C 27,0 C 19,0 C 52 % 1016,4 hPa 0,0 l/m 1,00 h 0,00 h 460 W/m 16,2 km/h (3 Bft) 98,75 %
20.06.2022 19:00 21,0 C 21,4 C 17,1 C 55 % 1016,5 hPa 0,0 l/m 0,97 h 0,00 h 277 W/m 15,8 km/h (3 Bft) 97,44 %
20.06.2022 20:00 19,6 C 18,9 C 15,5 C 59 % 1016,6 hPa 0,0 l/m 0,07 h 0,00 h 42 W/m 14,1 km/h (3 Bft) 97,30 %
20.06.2022 21:00 18,2 C 17,3 C 13,9 C 64 % 1016,8 hPa 0,0 l/m 0,00 h 0,00 h 14 W/m 8,8 km/h (2 Bft) 97,80 %
20.06.2022 22:00 16,9 C 15,8 C 12,7 C 69 % 1017,2 hPa 0,0 l/m 0,00 h 0,00 h 0 W/m 4,3 km/h (1 Bft) 97,78 %
20.06.2022 23:00 15,7 C 14,6 C 11,4 C 73 % 1017,3 hPa 0,0 l/m 0,00 h 0,00 h 0 W/m 3,7 km/h (1 Bft) 96,60 %
21.06.2022 00:00 14,8 C 13,8 C 10,7 C 76 % 1017,3 hPa 0,0 l/m 0,00 h 0,00 h 0 W/m 3,3 km/h (1 Bft) 97,69 %
21.06.2022 01:00 13,9 C 12,8 C 9,8 C 80 % 1017,2 hPa 0,0 l/m 0,00 h 0,00 h 0 W/m 1,5 km/h (1 Bft) 94,95 %
21.06.2022 02:00 12,9 C 11,8 C 8,8 C 84 % 1017,1 hPa 0,0 l/m 0,00 h 0,00 h 0 W/m 0,1 km/h (0 Bft) 98,36 %
21.06.2022 03:00 12,1 C 11,0 C 8,1 C 86 % 1016,9 hPa 0,0 l/m 0,00 h 0,00 h 0 W/m 0,7 km/h (0 Bft) 98,16 %
21.06.2022 04:00 11,8 C 11,0 C 8,1 C 88 % 1016,5 hPa 0,0 l/m 0,00 h 0,00 h 0 W/m 1,1 km/h (0 Bft) 98,01 %
21.06.2022 05:00 11,4 C 10,5 C 7,6 C 89 % 1016,4 hPa 0,0 l/m 0,00 h 0,00 h 8 W/m 0,3 km/h (0 Bft) 96,51 %
21.06.2022 06:00 11,2 C 10,7 C 7,7 C 90 % 1016,5 hPa 0,0 l/m 0,00 h 0,00 h 20 W/m 1,1 km/h (1 Bft) 97,24 %
21.06.2022 07:00 12,2 C 12,5 C 9,1 C 91 % 1016,3 hPa 0,0 l/m 0,33 h 0,00 h 124 W/m 3,9 km/h (1 Bft) 98,29 %
21.06.2022 08:00 15,6 C 18,5 C 12,9 C 80 % 1016,6 hPa 0,0 l/m 1,00 h 0,00 h 399 W/m 6,0 km/h (2 Bft) 96,72 %
21.06.2022 09:00 18,7 C 23,5 C 16,8 C 67 % 1016,6 hPa 0,0 l/m 1,00 h 0,00 h 539 W/m 7,6 km/h (2 Bft) 95,60 %
21.06.2022 10:00 19,7 C 22,3 C 19,2 C 62 % 1016,2 hPa 0,0 l/m 1,00 h 0,00 h 629 W/m 7,6 km/h (2 Bft) 99,15 %
21.06.2022 11:00 19,9 C 22,0 C 17,6 C 61 % 1015,2 hPa 0,0 l/m 0,90 h 0,00 h 596 W/m 7,6 km/h (2 Bft) 96,90 %
21.06.2022 12:00 20,8 C 22,5 C 19,2 C 59 % 1015,1 hPa 0,0 l/m 0,95 h 0,00 h 574 W/m 9,0 km/h (2 Bft) 99,03 %
21.06.2022 13:00 21,1 C 22,6 C 18,9 C 59 % 1014,9 hPa 0,0 l/m 0,43 h 0,00 h 463 W/m 7,7 km/h (2 Bft) 95,95 %
21.06.2022 14:00 22,4 C 25,0 C 19,2 C 56 % 1014,5 hPa 0,0 l/m 0,93 h 0,00 h 650 W/m 9,2 km/h (2 Bft) 98,08 %
21.06.2022 15:00 23,2 C 24,8 C 19,3 C 53 % 1014,1 hPa 0,0 l/m 0,77 h 0,00 h 526 W/m 6,6 km/h (2 Bft) 99,07 %
21.06.2022 16:00 23,4 C 25,4 C 19,6 C 51 % 1013,5 hPa 0,0 l/m 0,47 h 0,00 h 414 W/m 6,0 km/h (2 Bft) 96,34 %
21.06.2022 17:00 24,2 C 26,0 C 20,2 C 50 % 1012,9 hPa 0,0 l/m 0,60 h 0,03 h 337 W/m 6,8 km/h (2 Bft) 97,86 %
21.06.2022 18:00 23,7 C 24,7 C 19,6 C 52 % 1012,7 hPa 0,0 l/m 0,55 h 0,00 h 249 W/m 5,1 km/h (1 Bft) 98,32 %
21.06.2022 19:00 22,8 C 22,0 C 18,2 C 54 % 1012,5 hPa 0,0 l/m 0,00 h 0,00 h 74 W/m 4,9 km/h (1 Bft) 97,22 %
21.06.2022 20:00 21,7 C 20,9 C 17,4 C 56 % 1012,7 hPa 0,0 l/m 0,00 h 0,00 h 35 W/m 6,6 km/h (2 Bft) 97,58 %
21.06.2022 21:00 20,9 C 19,8 C 16,5 C 58 % 1012,8 hPa 0,0 l/m 0,17 h 0,00 h 15 W/m 6,2 km/h (2 Bft) 96,94 %
21.06.2022 22:00 19,5 C 18,2 C 14,9 C 65 % 1013,1 hPa 0,0 l/m 0,00 h 0,00 h 5 W/m 5,7 km/h (1 Bft) 98,08 %
21.06.2022 23:00 18,2 C 17,1 C 13,8 C 69 % 1013,0 hPa 0,0 l/m 0,00 h 0,00 h 0 W/m 3,5 km/h (1 Bft) 96,11 %
22.06.2022 00:00 17,5 C 16,1 C 12,9 C 71 % 1013,0 hPa 0,0 l/m 0,00 h 0,00 h 0 W/m 1,1 km/h (0 Bft) 97,70 %
22.06.2022 01:00 15,9 C 14,2 C 11,2 C 78 % 1013,4 hPa 0,0 l/m 0,00 h 0,00 h 0 W/m 0,0 km/h (0 Bft) 96,51 %
22.06.2022 02:00 14,4 C 13,1 C 10,4 C 82 % 1013,1 hPa 0,0 l/m 0,00 h 0,00 h 0 W/m 0,9 km/h (0 Bft) 99,57 %
22.06.2022 03:00 13,6 C 12,5 C 9,4 C 85 % 1012,8 hPa 0,0 l/m 0,00 h 0,00 h 0 W/m 1,3 km/h (1 Bft) 98,00 %
22.06.2022 04:00 13,0 C 12,0 C 9,2 C 87 % 1012,5 hPa 0,0 l/m 0,00 h 0,00 h 0 W/m 0,4 km/h (0 Bft) 96,18 %
22.06.2022 05:00 12,6 C 11,8 C 8,8 C 88 % 1012,4 hPa 0,0 l/m 0,00 h 0,00 h 12 W/m 0,6 km/h (0 Bft) 96,96 %
22.06.2022 06:00 13,0 C 12,9 C 9,7 C 89 % 1012,5 hPa 0,0 l/m 0,00 h 0,00 h 32 W/m 0,4 km/h (0 Bft) 98,17 %
22.06.2022 07:00 14,2 C 14,6 C 11,1 C 88 % 1012,8 hPa 0,0 l/m 0,33 h 0,00 h 115 W/m 3,9 km/h (1 Bft) 98,49 %
22.06.2022 08:00 17,9 C 20,3 C 14,7 C 77 % 1013,0 hPa 0,0 l/m 0,97 h 0,00 h 359 W/m 6,6 km/h (2 Bft) 96,43 %
22.06.2022 09:00 21,3 C 26,7 C 19,9 C 65 % 1012,7 hPa 0,0 l/m 1,00 h 0,00 h 567 W/m 9,4 km/h (2 Bft) 97,16 %
22.06.2022 10:00 23,3 C 26,7 C 23,4 C 59 % 1012,8 hPa 0,0 l/m 1,00 h 0,00 h 725 W/m 10,1 km/h (2 Bft) 96,80 %
22.06.2022 11:00 24,9 C 28,0 C 22,6 C 54 % 1012,8 hPa 0,0 l/m 1,00 h 0,00 h 838 W/m 11,2 km/h (2 Bft) 99,50 %
22.06.2022 12:00 26,4 C 28,7 C 28,7 C 50 % 1012,3 hPa 0,0 l/m 1,00 h 0,00 h 910 W/m 11,0 km/h (2 Bft) 96,65 %
22.06.2022 13:00 27,3 C 29,3 C 29,3 C 47 % 1012,3 hPa 0,0 l/m 1,00 h 0,00 h 908 W/m 11,2 km/h (2 Bft) 97,79 %
22.06.2022 14:00 28,5 C 31,3 C 24,6 C 43 % 1012,2 hPa 0,0 l/m 1,00 h 0,00 h 929 W/m 11,1 km/h (2 Bft) 98,29 %
22.06.2022 15:00 29,3 C 32,2 C 24,6 C 41 % 1011,5 hPa 0,0 l/m 1,00 h 0,00 h 867 W/m 11,0 km/h (2 Bft) 96,37 %
22.06.2022 16:00 29,9 C 35,4 C 25,5 C 40 % 1011,1 hPa 0,0 l/m 1,00 h 0,00 h 761 W/m 9,0 km/h (2 Bft) 98,01 %
22.06.2022 17:00 30,7 C 36,2 C 26,4 C 38 % 1010,8 hPa 0,0 l/m 1,00 h 0,00 h 623 W/m 8,5 km/h (2 Bft) 97,79 %
22.06.2022 18:00 30,7 C 36,0 C 26,3 C 39 % 1010,6 hPa 0,0 l/m 1,00 h 0,07 h 454 W/m 8,3 km/h (2 Bft) 97,65 %
22.06.2022 19:00 28,7 C 28,7 C 22,0 C 48 % 1010,4 hPa 0,0 l/m 1,00 h 0,00 h 276 W/m 6,6 km/h (2 Bft) 96,16 %
22.06.2022 20:00 26,2 C 24,7 C 20,0 C 53 % 1010,6 hPa 0,0 l/m 0,07 h 0,00 h 42 W/m 6,2 km/h (2 Bft) 98,36 %
22.06.2022 21:00 23,9 C 22,7 C 18,7 C 57 % 1010,7 hPa 0,0 l/m 0,00 h 0,00 h 13 W/m 3,8 km/h (1 Bft) 98,22 %
22.06.2022 22:00 22,6 C 20,9 C 16,9 C 58 % 1011,4 hPa 0,0 l/m 0,00 h 0,00 h 0 W/m 0,6 km/h (0 Bft) 97,58 %
22.06.2022 23:00 21,3 C 19,7 C 15,8 C 60 % 1011,9 hPa 0,0 l/m 0,00 h 0,00 h 0 W/m 1,2 km/h (1 Bft) 96,72 %
23.06.2022 00:00 20,2 C 19,0 C 15,6 C 60 % 1012,2 hPa 0,0 l/m 0,00 h 0,00 h 0 W/m 3,4 km/h (1 Bft) 99,13 %
23.06.2022 01:00 19,6 C 18,7 C 15,2 C 60 % 1011,9 hPa 0,0 l/m 0,00 h 0,00 h 0 W/m 4,7 km/h (1 Bft) 96,79 %
23.06.2022 02:00 18,7 C 17,6 C 14,0 C 65 % 1011,8 hPa 0,0 l/m 0,00 h 0,00 h 0 W/m 2,6 km/h (1 Bft) 97,79 %
23.06.2022 03:00 17,8 C 16,9 C 13,3 C 68 % 1011,6 hPa 0,0 l/m 0,00 h 0,00 h 0 W/m 2,5 km/h (1 Bft) 97,58 %
23.06.2022 04:00 17,1 C 16,0 C 12,8 C 73 % 1011,7 hPa 0,0 l/m 0,00 h 0,00 h 0 W/m 0,6 km/h (0 Bft) 98,65 %
23.06.2022 05:00 16,5 C 15,6 C 12,3 C 77 % 1011,7 hPa 0,0 l/m 0,00 h 0,00 h 10 W/m 0,5 km/h (0 Bft) 96,65 %
23.06.2022 06:00 16,5 C 16,2 C 12,9 C 79 % 1011,7 hPa 0,0 l/m 0,00 h 0,00 h 27 W/m 1,7 km/h (1 Bft) 97,65 %
23.06.2022 07:00 18,3 C 18,8 C 15,1 C 77 % 1011,8 hPa 0,0 l/m 0,33 h 0,00 h 116 W/m 5,2 km/h (1 Bft) 98,07 %
23.06.2022 08:00 22,2 C 23,1 C 18,7 C 69 % 1011,9 hPa 0,0 l/m 1,00 h 0,00 h 369 W/m 12,1 km/h (2 Bft) 95,80 %
23.06.2022 09:00 25,0 C 28,6 C 23,3 C 66 % 1011,8 hPa 0,0 l/m 1,00 h 0,00 h 540 W/m 13,2 km/h (3 Bft) 98,36 %
23.06.2022 10:00 27,1 C 28,4 C 27,0 C 61 % 1011,7 hPa 0,0 l/m 1,00 h 0,00 h 685 W/m 16,0 km/h (3 Bft) 97,37 %
23.06.2022 11:00 28,6 C 29,7 C 26,1 C 57 % 1011,5 hPa 0,0 l/m 1,00 h 0,00 h 803 W/m 18,8 km/h (3 Bft) 98,22 %
23.06.2022 12:00 30,2 C 30,7 C 30,9 C 51 % 1011,1 hPa 0,0 l/m 1,00 h 0,00 h 880 W/m 17,5 km/h (3 Bft) 97,60 %
23.06.2022 13:00 31,5 C 32,5 C 33,9 C 50 % 1010,7 hPa 0,0 l/m 1,00 h 0,00 h 915 W/m 14,0 km/h (3 Bft) 98,15 %
23.06.2022 14:00 32,3 C 34,0 C 28,8 C 48 % 1010,2 hPa 0,0 l/m 1,00 h 0,00 h 912 W/m 12,6 km/h (3 Bft) 96,09 %
23.06.2022 15:00 33,1 C 34,8 C 28,3 C 45 % 1009,6 hPa 0,0 l/m 1,00 h 0,00 h 853 W/m 12,9 km/h (3 Bft) 99,43 %
23.06.2022 16:00 33,0 C 36,3 C 28,3 C 46 % 1009,0 hPa 0,0 l/m 1,00 h 0,00 h 774 W/m 13,4 km/h (3 Bft) 96,30 %
23.06.2022 17:00 32,9 C 36,5 C 28,4 C 47 % 1008,4 hPa 0,0 l/m 1,00 h 0,00 h 621 W/m 12,4 km/h (3 Bft) 96,80 %
23.06.2022 18:00 33,3 C 36,8 C 28,9 C 47 % 1007,9 hPa 0,0 l/m 0,90 h 0,13 h 440 W/m 10,4 km/h (2 Bft) 99,85 %
23.06.2022 19:00 31,5 C 30,2 C 26,6 C 52 % 1007,8 hPa 0,0 l/m 0,00 h 0,00 h 100 W/m 7,3 km/h (2 Bft) 96,94 %
23.06.2022 20:00 28,9 C 27,2 C 23,9 C 60 % 1008,1 hPa 0,0 l/m 0,00 h 0,00 h 16 W/m 10,0 km/h (2 Bft) 98,86 %
23.06.2022 21:00 25,1 C 23,9 C 20,7 C 73 % 1008,3 hPa 0,0 l/m 0,00 h 0,00 h 7 W/m 10,8 km/h (2 Bft) 95,91 %
23.06.2022 22:00 24,0 C 23,0 C 20,0 C 78 % 1007,9 hPa 0,0 l/m 0,00 h 0,00 h 0 W/m 6,2 km/h (2 Bft) 98,78 %
23.06.2022 23:00 23,4 C 22,3 C 19,2 C 81 % 1007,6 hPa 0,0 l/m 0,00 h 0,00 h 0 W/m 2,3 km/h (1 Bft) 98,01 %
24.06.2022 00:00 22,3 C 21,2 C 18,3 C 85 % 1007,0 hPa 0,0 l/m 0,00 h 0,00 h 0 W/m 3,3 km/h (1 Bft) 96,49 %
24.06.2022 01:00 21,9 C 20,3 C 16,9 C 89 % 1006,5 hPa 1,0 l/m 0,00 h 0,40 h 0 W/m 3,4 km/h (1 Bft) 97,94 %
24.06.2022 02:00 21,2 C 20,0 C 16,1 C 93 % 1006,7 hPa 0,0 l/m 0,00 h 0,00 h 0 W/m 11,4 km/h (2 Bft) 98,45 %
24.06.2022 03:00 20,7 C 19,4 C 15,9 C 94 % 1007,3 hPa 1,6 l/m 0,00 h 0,93 h 0 W/m 8,3 km/h (2 Bft) 95,65 %
24.06.2022 04:00 20,2 C 18,9 C 15,8 C 96 % 1007,0 hPa 0,4 l/m 0,00 h 0,67 h 0 W/m 5,0 km/h (1 Bft) 97,47 %
24.06.2022 05:00 19,9 C 18,9 C 15,6 C 97 % 1006,6 hPa 0,0 l/m 0,00 h 0,07 h 7 W/m 3,9 km/h (1 Bft) 97,30 %
24.06.2022 06:00 19,5 C 18,9 C 15,1 C 97 % 1006,6 hPa 0,0 l/m 0,00 h 0,00 h 9 W/m 3,4 km/h (1 Bft) 96,30 %
24.06.2022 07:00 19,4 C 18,9 C 15,0 C 97 % 1006,8 hPa 0,0 l/m 0,00 h 0,00 h 25 W/m 2,7 km/h (1 Bft) 98,79 %
24.06.2022 08:00 19,2 C 18,1 C 14,9 C 97 % 1006,8 hPa 2,8 l/m 0,00 h 0,60 h 41 W/m 6,0 km/h (2 Bft) 96,65 %
24.06.2022 09:00 18,9 C 17,8 C 14,7 C 98 % 1006,9 hPa 0,8 l/m 0,00 h 0,67 h 54 W/m 6,4 km/h (2 Bft) 97,44 %
24.06.2022 10:00 18,9 C 18,1 C 14,8 C 98 % 1007,1 hPa 0,0 l/m 0,00 h 0,00 h 120 W/m 4,1 km/h (1 Bft) 98,36 %
24.06.2022 11:00 19,5 C 20,1 C 15,7 C 97 % 1007,2 hPa 0,0 l/m 0,27 h 0,00 h 354 W/m 4,7 km/h (1 Bft) 97,31 %
24.06.2022 12:00 22,3 C 23,7 C 20,6 C 85 % 1007,0 hPa 0,0 l/m 0,50 h 0,07 h 518 W/m 8,0 km/h (2 Bft) 96,92 %
24.06.2022 13:00 23,2 C 24,0 C 21,9 C 79 % 1007,0 hPa 0,0 l/m 0,47 h 0,00 h 523 W/m 12,0 km/h (2 Bft) 99,79 %
24.06.2022 14:00 25,4 C 27,2 C 22,1 C 69 % 1006,7 hPa 0,0 l/m 0,90 h 0,00 h 762 W/m 9,0 km/h (2 Bft) 95,75 %
24.06.2022 15:00 26,5 C 28,3 C 21,8 C 63 % 1006,7 hPa 0,0 l/m 0,87 h 0,00 h 786 W/m 10,0 km/h (2 Bft) 98,36 %
24.06.2022 16:00 26,6 C 28,4 C 22,1 C 62 % 1006,5 hPa 0,0 l/m 0,43 h 0,00 h 454 W/m 9,1 km/h (2 Bft) 97,94 %
24.06.2022 17:00 25,4 C 24,8 C 21,0 C 66 % 1006,4 hPa 0,0 l/m 0,17 h 0,00 h 210 W/m 13,3 km/h (3 Bft) 97,36 %
24.06.2022 18:00 24,5 C 24,6 C 20,5 C 67 % 1006,7 hPa 0,0 l/m 0,37 h 0,00 h 221 W/m 10,5 km/h (2 Bft) 96,39 %
24.06.2022 19:00 23,4 C 22,6 C 19,1 C 72 % 1007,2 hPa 0,0 l/m 0,00 h 0,00 h 94 W/m 9,0 km/h (2 Bft) 98,36 %
24.06.2022 20:00 22,6 C 21,6 C 18,3 C 78 % 1007,8 hPa 0,0 l/m 0,17 h 0,00 h 66 W/m 9,9 km/h (2 Bft) 97,37 %
24.06.2022 21:00 21,3 C 19,9 C 17,0 C 83 % 1008,5 hPa 0,0 l/m 0,00 h 0,00 h 13 W/m 6,1 km/h (2 Bft) 98,01 %
24.06.2022 22:00 20,4 C 19,0 C 16,2 C 86 % 1009,0 hPa 0,0 l/m 0,00 h 0,00 h 0 W/m 4,5 km/h (1 Bft) 96,44 %
24.06.2022 23:00 19,8 C 18,9 C 15,8 C 87 % 1009,2 hPa 0,0 l/m 0,00 h 0,10 h 0 W/m 10,8 km/h (2 Bft) 98,44 %
25.06.2022 00:00 19,2 C 18,2 C 15,3 C 87 % 1009,2 hPa 0,0 l/m 0,00 h 0,00 h 0 W/m 7,9 km/h (2 Bft) 97,68 %
25.06.2022 01:00 18,6 C 17,6 C 14,6 C 87 % 1009,3 hPa 0,0 l/m 0,00 h 0,00 h 0 W/m 4,1 km/h (1 Bft) 97,65 %
25.06.2022 02:00 17,8 C 16,6 C 13,8 C 89 % 1009,7 hPa 0,0 l/m 0,00 h 0,00 h 0 W/m 3,7 km/h (1 Bft) 97,32 %
25.06.2022 03:00 17,1 C 16,2 C 13,2 C 91 % 1010,3 hPa 0,0 l/m 0,00 h 0,00 h 0 W/m 3,6 km/h (1 Bft) 99,09 %
25.06.2022 04:00 16,5 C 15,5 C 12,8 C 92 % 1010,7 hPa 0,0 l/m 0,00 h 0,00 h 0 W/m 5,1 km/h (1 Bft) 96,87 %
25.06.2022 05:00 16,1 C 15,1 C 12,3 C 94 % 1011,2 hPa 0,0 l/m 0,00 h 0,00 h 9 W/m 5,0 km/h (1 Bft) 97,04 %
25.06.2022 06:00 16,1 C 15,5 C 12,7 C 95 % 1011,4 hPa 0,0 l/m 0,00 h 0,00 h 25 W/m 5,4 km/h (1 Bft) 99,46 %
25.06.2022 07:00 17,1 C 17,3 C 14,0 C 95 % 1011,8 hPa 0,0 l/m 0,30 h 0,00 h 124 W/m 6,8 km/h (2 Bft) 95,28 %
25.06.2022 08:00 19,8 C 21,8 C 17,3 C 83 % 1012,1 hPa 0,0 l/m 1,00 h 0,00 h 387 W/m 14,1 km/h (3 Bft) 98,65 %
25.06.2022 09:00 22,1 C 27,3 C 21,9 C 73 % 1012,3 hPa 0,0 l/m 1,00 h 0,00 h 564 W/m 15,9 km/h (3 Bft) 97,65 %
25.06.2022 10:00 23,4 C 25,7 C 24,3 C 67 % 1012,3 hPa 0,0 l/m 1,00 h 0,00 h 662 W/m 18,9 km/h (3 Bft) 98,86 %
25.06.2022 11:00 24,2 C 25,9 C 22,9 C 64 % 1012,3 hPa 0,0 l/m 0,67 h 0,00 h 657 W/m 18,4 km/h (3 Bft) 97,16 %
25.06.2022 12:00 25,4 C 26,6 C 25,9 C 59 % 1012,0 hPa 0,0 l/m 0,70 h 0,00 h 703 W/m 17,6 km/h (3 Bft) 97,08 %
25.06.2022 13:00 25,0 C 25,3 C 22,4 C 60 % 1012,0 hPa 0,0 l/m 0,13 h 0,00 h 333 W/m 13,4 km/h (3 Bft) 98,32 %
25.06.2022 14:00 25,4 C 26,1 C 22,7 C 60 % 1012,0 hPa 0,0 l/m 0,37 h 0,00 h 442 W/m 12,1 km/h (2 Bft) 97,71 %
25.06.2022 15:00 25,8 C 26,0 C 22,3 C 59 % 1011,9 hPa 0,0 l/m 0,03 h 0,00 h 340 W/m 10,2 km/h (2 Bft) 96,38 %
25.06.2022 16:00 25,4 C 25,3 C 21,7 C 60 % 1011,8 hPa 0,0 l/m 0,00 h 0,00 h 278 W/m 8,8 km/h (2 Bft) 99,44 %
25.06.2022 17:00 25,5 C 25,0 C 21,2 C 60 % 1011,4 hPa 0,0 l/m 0,13 h 0,00 h 216 W/m 7,6 km/h (2 Bft) 96,87 %
25.06.2022 18:00 24,9 C 24,5 C 20,7 C 62 % 1011,1 hPa 0,0 l/m 0,20 h 0,00 h 134 W/m 4,4 km/h (1 Bft) 97,08 %
25.06.2022 19:00 25,2 C 24,8 C 20,7 C 63 % 1010,6 hPa 0,0 l/m 0,23 h 0,00 h 150 W/m 3,3 km/h (1 Bft) 97,87 %
25.06.2022 20:00 24,8 C 23,4 C 19,5 C 68 % 1010,7 hPa 0,0 l/m 0,00 h 0,00 h 50 W/m 0,9 km/h (0 Bft) 97,94 %
25.06.2022 21:00 23,6 C 21,7 C 18,0 C 74 % 1010,9 hPa 0,0 l/m 0,00 h 0,00 h 13 W/m 0,0 km/h (0 Bft) 97,01 %
25.06.2022 22:00 22,0 C 20,2 C 17,0 C 79 % 1011,3 hPa 0,0 l/m 0,00 h 0,00 h 0 W/m 3,8 km/h (1 Bft) 97,93 %
25.06.2022 23:00 19,9 C 18,7 C 15,7 C 86 % 1011,3 hPa 0,0 l/m 0,00 h 0,00 h 0 W/m 4,4 km/h (1 Bft) 97,80 %
26.06.2022 00:00 19,1 C 17,8 C 14,7 C 90 % 1011,9 hPa 3,2 l/m 0,00 h 0,47 h 0 W/m 10,3 km/h (2 Bft) 98,10 %
26.06.2022 01:00 17,8 C 16,4 C 13,2 C 96 % 1012,2 hPa 3,2 l/m 0,00 h 1,00 h 0 W/m 11,4 km/h (2 Bft) 96,72 %
26.06.2022 02:00 17,4 C 16,1 C 13,2 C 97 % 1012,2 hPa 0,4 l/m 0,00 h 0,33 h 0 W/m 1,8 km/h (1 Bft) 98,86 %
26.06.2022 03:00 17,1 C 16,1 C 12,9 C 97 % 1012,6 hPa 0,0 l/m 0,00 h 0,00 h 0 W/m 3,5 km/h (1 Bft) 96,87 %
26.06.2022 04:00 16,9 C 16,0 C 12,8 C 98 % 1013,1 hPa 0,0 l/m 0,00 h 0,00 h 0 W/m 5,3 km/h (1 Bft) 97,86 %
26.06.2022 05:00 16,9 C 16,1 C 12,8 C 98 % 1013,6 hPa 0,0 l/m 0,00 h 0,00 h 9 W/m 5,6 km/h (1 Bft) 97,51 %
26.06.2022 06:00 16,4 C 15,9 C 12,0 C 97 % 1014,0 hPa 0,0 l/m 0,00 h 0,00 h 23 W/m 7,8 km/h (2 Bft) 98,33 %
26.06.2022 07:00 16,2 C 15,8 C 12,0 C 95 % 1014,6 hPa 0,0 l/m 0,07 h 0,00 h 70 W/m 7,4 km/h (2 Bft) 96,44 %
26.06.2022 08:00 17,0 C 18,2 C 13,5 C 92 % 1015,3 hPa 0,0 l/m 0,73 h 0,00 h 306 W/m 7,5 km/h (2 Bft) 98,22 %
26.06.2022 09:00 18,9 C 22,6 C 17,9 C 83 % 1015,9 hPa 0,0 l/m 0,77 h 0,00 h 543 W/m 7,0 km/h (2 Bft) 95,94 %
26.06.2022 10:00 20,1 C 21,5 C 18,8 C 75 % 1016,3 hPa 0,0 l/m 0,57 h 0,00 h 471 W/m 9,8 km/h (2 Bft) 97,86 %
26.06.2022 11:00 21,4 C 23,3 C 19,9 C 69 % 1016,5 hPa 0,0 l/m 0,90 h 0,00 h 722 W/m 10,1 km/h (2 Bft) 98,58 %
26.06.2022 12:00 21,8 C 22,5 C 19,4 C 66 % 1016,8 hPa 0,0 l/m 0,43 h 0,00 h 448 W/m 9,3 km/h (2 Bft) 97,21 %
26.06.2022 13:00 20,8 C 20,6 C 16,9 C 74 % 1017,0 hPa 0,0 l/m 0,00 h 0,60 h 278 W/m 7,7 km/h (2 Bft) 96,19 %
26.06.2022 14:00 20,3 C 20,4 C 16,9 C 77 % 1017,0 hPa 0,0 l/m 0,00 h 0,03 h 243 W/m 4,5 km/h (1 Bft) 99,28 %
26.06.2022 15:00 20,9 C 21,9 C 17,6 C 72 % 1016,7 hPa 0,0 l/m 0,30 h 0,00 h 379 W/m 6,5 km/h (2 Bft) 96,87 %
26.06.2022 16:00 21,1 C 20,4 C 16,8 C 71 % 1016,7 hPa 0,0 l/m 0,00 h 0,07 h 147 W/m 7,5 km/h (2 Bft) 97,44 %
26.06.2022 17:00 20,3 C 19,6 C 16,3 C 71 % 1016,3 hPa 0,0 l/m 0,00 h 0,00 h 101 W/m 4,7 km/h (1 Bft) 96,87 %
26.06.2022 18:00 20,4 C 20,4 C 16,6 C 68 % 1015,8 hPa 0,0 l/m 0,17 h 0,00 h 159 W/m 3,7 km/h (1 Bft) 99,42 %
26.06.2022 19:00 20,8 C 20,3 C 16,4 C 66 % 1015,5 hPa 0,0 l/m 0,00 h 0,00 h 74 W/m 2,0 km/h (1 Bft) 96,44 %
26.06.2022 20:00 20,2 C 19,1 C 15,6 C 72 % 1015,5 hPa 0,0 l/m 0,00 h 0,00 h 18 W/m 1,2 km/h (1 Bft) 97,51 %
26.06.2022 21:00 19,7 C 18,6 C 15,2 C 75 % 1015,8 hPa 0,0 l/m 0,00 h 0,10 h 7 W/m 1,7 km/h (1 Bft) 98,36 %
26.06.2022 22:00 19,0 C 17,8 C 14,3 C 80 % 1015,7 hPa 0,0 l/m 0,00 h 0,00 h 0 W/m 0,7 km/h (0 Bft) 97,15 %
26.06.2022 23:00 18,5 C 17,8 C 14,4 C 82 % 1015,4 hPa 0,0 l/m 0,00 h 0,00 h 0 W/m 0,0 km/h (0 Bft) 96,22 %
Min-Datum _ 21.06.22 21.06.22 21.06.22 22.06.22 24.06.22 - - - - 20.06.22 20.06.22
_ Min-Zeit 06:08 05:40 05:24 18:02 01:50 - - - - 02:44 08:12
Minimum _ 11,1 C 10,0 C 7,2 C 36 % 1005,8 hPa - - - - 0,0 km/h (0 Bft) 44,83 %
Max-Datum _ 23.06.22 23.06.22 23.06.22 24.06.22 21.06.22 26.06.22 20.06.22 20.06.22 20.06.22 20.06.22 20.06.22
_ Max-Zeit 16:06 18:02 13:44 09:02 00:42 00:48 12:08 04:07 13:10 16:48 00:08
Maximum _ 33,4 C 38,9 C 36,7 C 98 % 1017,4 hPa 3,2 l/m 0,07 h 0,08 h 1204 W/m 35,4 km/h
NW (5 Bft)
100,00 %
Durchschnitt _ 20,7 C 21,1 C 17,2 C 73 % 1012,3 hPa #16,0 l/m #54:14 h #8:48 h 348 W/m 7,3 km/h (2 Bft) 97,54 %
© 2022 W. Hausmann